sensor_id;sensor_type;location;lat;lon;timestamp;P1;durP1;ratioP1;P2;durP2;ratioP2
19560;SDS011;9927;47.792;10.616;2023-06-22T00:00:05;12.10;;;7.95;;
19560;SDS011;9927;47.792;10.616;2023-06-22T00:02:37;11.40;;;8.43;;
19560;SDS011;9927;47.792;10.616;2023-06-22T00:05:05;11.27;;;7.40;;
19560;SDS011;9927;47.792;10.616;2023-06-22T00:07:32;14.32;;;8.95;;
19560;SDS011;9927;47.792;10.616;2023-06-22T00:09:59;13.15;;;8.00;;
19560;SDS011;9927;47.792;10.616;2023-06-22T00:12:27;11.25;;;8.10;;
19560;SDS011;9927;47.792;10.616;2023-06-22T00:14:54;13.75;;;9.13;;
19560;SDS011;9927;47.792;10.616;2023-06-22T00:17:21;16.55;;;9.57;;
19560;SDS011;9927;47.792;10.616;2023-06-22T00:19:49;12.80;;;8.02;;
19560;SDS011;9927;47.792;10.616;2023-06-22T00:22:20;12.82;;;8.00;;
19560;SDS011;9927;47.792;10.616;2023-06-22T00:24:55;18.17;;;10.40;;
19560;SDS011;9927;47.792;10.616;2023-06-22T00:27:22;13.55;;;8.10;;
19560;SDS011;9927;47.792;10.616;2023-06-22T00:29:50;15.48;;;7.78;;
19560;SDS011;9927;47.792;10.616;2023-06-22T00:32:17;10.90;;;7.68;;
19560;SDS011;9927;47.792;10.616;2023-06-22T00:34:45;11.85;;;7.97;;
19560;SDS011;9927;47.792;10.616;2023-06-22T00:37:12;15.90;;;7.68;;
19560;SDS011;9927;47.792;10.616;2023-06-22T00:39:40;15.40;;;7.95;;
19560;SDS011;9927;47.792;10.616;2023-06-22T00:42:07;11.48;;;8.10;;
19560;SDS011;9927;47.792;10.616;2023-06-22T00:44:35;12.18;;;7.55;;
19560;SDS011;9927;47.792;10.616;2023-06-22T00:47:03;8.95;;;6.95;;
19560;SDS011;9927;47.792;10.616;2023-06-22T00:49:30;13.32;;;7.93;;
19560;SDS011;9927;47.792;10.616;2023-06-22T00:51:58;11.95;;;7.43;;
19560;SDS011;9927;47.792;10.616;2023-06-22T00:54:25;12.55;;;7.75;;
19560;SDS011;9927;47.792;10.616;2023-06-22T00:56:55;12.45;;;7.63;;
19560;SDS011;9927;47.792;10.616;2023-06-22T00:59:24;11.00;;;7.28;;
19560;SDS011;9927;47.792;10.616;2023-06-22T01:01:54;12.57;;;8.35;;
19560;SDS011;9927;47.792;10.616;2023-06-22T01:04:24;12.90;;;8.07;;
19560;SDS011;9927;47.792;10.616;2023-06-22T01:12:44;13.88;;;9.02;;
19560;SDS011;9927;47.792;10.616;2023-06-22T01:15:18;14.65;;;9.30;;
19560;SDS011;9927;47.792;10.616;2023-06-22T01:18:03;15.10;;;8.50;;
19560;SDS011;9927;47.792;10.616;2023-06-22T01:20:32;16.50;;;9.57;;
19560;SDS011;9927;47.792;10.616;2023-06-22T01:23:05;12.60;;;9.02;;
19560;SDS011;9927;47.792;10.616;2023-06-22T01:25:45;12.70;;;8.98;;
19560;SDS011;9927;47.792;10.616;2023-06-22T01:30:51;16.88;;;9.25;;
19560;SDS011;9927;47.792;10.616;2023-06-22T01:33:31;12.13;;;8.35;;
19560;SDS011;9927;47.792;10.616;2023-06-22T01:36:01;12.85;;;8.25;;
19560;SDS011;9927;47.792;10.616;2023-06-22T01:38:30;12.35;;;8.07;;
19560;SDS011;9927;47.792;10.616;2023-06-22T01:40:58;15.73;;;7.82;;
19560;SDS011;9927;47.792;10.616;2023-06-22T01:43:27;12.18;;;8.18;;
19560;SDS011;9927;47.792;10.616;2023-06-22T01:45:55;14.02;;;8.55;;
19560;SDS011;9927;47.792;10.616;2023-06-22T01:48:23;8.25;;;6.72;;
19560;SDS011;9927;47.792;10.616;2023-06-22T01:50:52;14.30;;;8.00;;
19560;SDS011;9927;47.792;10.616;2023-06-22T01:53:21;13.05;;;7.90;;
19560;SDS011;9927;47.792;10.616;2023-06-22T01:55:48;12.88;;;8.32;;
19560;SDS011;9927;47.792;10.616;2023-06-22T01:58:16;12.43;;;8.63;;
19560;SDS011;9927;47.792;10.616;2023-06-22T02:00:44;16.65;;;9.20;;
19560;SDS011;9927;47.792;10.616;2023-06-22T02:03:21;11.02;;;8.50;;
19560;SDS011;9927;47.792;10.616;2023-06-22T02:05:54;12.25;;;8.63;;
19560;SDS011;9927;47.792;10.616;2023-06-22T02:08:32;11.48;;;8.07;;
19560;SDS011;9927;47.792;10.616;2023-06-22T02:11:05;11.55;;;8.63;;
19560;SDS011;9927;47.792;10.616;2023-06-22T02:13:34;10.30;;;7.93;;
19560;SDS011;9927;47.792;10.616;2023-06-22T02:16:03;11.82;;;7.95;;
19560;SDS011;9927;47.792;10.616;2023-06-22T02:18:30;10.85;;;7.90;;
19560;SDS011;9927;47.792;10.616;2023-06-22T02:20:58;15.00;;;8.75;;
19560;SDS011;9927;47.792;10.616;2023-06-22T02:23:25;10.77;;;8.23;;
19560;SDS011;9927;47.792;10.616;2023-06-22T02:25:53;13.23;;;7.55;;
19560;SDS011;9927;47.792;10.616;2023-06-22T02:28:20;14.07;;;8.52;;
19560;SDS011;9927;47.792;10.616;2023-06-22T02:30:47;12.77;;;8.77;;
19560;SDS011;9927;47.792;10.616;2023-06-22T02:33:14;13.75;;;8.20;;
19560;SDS011;9927;47.792;10.616;2023-06-22T02:35:42;8.18;;;7.00;;
19560;SDS011;9927;47.792;10.616;2023-06-22T02:38:12;8.43;;;7.07;;
19560;SDS011;9927;47.792;10.616;2023-06-22T02:40:39;12.18;;;7.93;;
19560;SDS011;9927;47.792;10.616;2023-06-22T02:43:06;9.65;;;6.90;;
19560;SDS011;9927;47.792;10.616;2023-06-22T02:45:33;11.00;;;7.35;;
19560;SDS011;9927;47.792;10.616;2023-06-22T02:48:01;10.98;;;7.53;;
19560;SDS011;9927;47.792;10.616;2023-06-22T02:50:28;12.23;;;8.23;;
19560;SDS011;9927;47.792;10.616;2023-06-22T02:52:56;10.25;;;7.57;;
19560;SDS011;9927;47.792;10.616;2023-06-22T02:55:23;8.68;;;7.30;;
19560;SDS011;9927;47.792;10.616;2023-06-22T02:57:50;12.77;;;8.32;;
19560;SDS011;9927;47.792;10.616;2023-06-22T03:00:19;12.02;;;8.85;;
19560;SDS011;9927;47.792;10.616;2023-06-22T03:02:47;14.77;;;8.57;;
19560;SDS011;9927;47.792;10.616;2023-06-22T03:05:15;10.60;;;7.68;;
19560;SDS011;9927;47.792;10.616;2023-06-22T03:07:45;14.00;;;8.77;;
19560;SDS011;9927;47.792;10.616;2023-06-22T03:10:13;15.70;;;8.75;;
19560;SDS011;9927;47.792;10.616;2023-06-22T03:12:41;7.57;;;6.40;;
19560;SDS011;9927;47.792;10.616;2023-06-22T03:15:10;10.27;;;6.93;;
19560;SDS011;9927;47.792;10.616;2023-06-22T03:17:39;10.38;;;7.90;;
19560;SDS011;9927;47.792;10.616;2023-06-22T03:20:08;14.23;;;8.32;;
19560;SDS011;9927;47.792;10.616;2023-06-22T03:22:38;16.67;;;8.88;;
19560;SDS011;9927;47.792;10.616;2023-06-22T03:25:06;15.95;;;7.88;;
19560;SDS011;9927;47.792;10.616;2023-06-22T03:27:37;14.45;;;8.38;;
19560;SDS011;9927;47.792;10.616;2023-06-22T03:30:04;8.30;;;7.47;;
19560;SDS011;9927;47.792;10.616;2023-06-22T03:32:34;12.32;;;8.23;;
19560;SDS011;9927;47.792;10.616;2023-06-22T03:35:01;11.60;;;7.75;;
19560;SDS011;9927;47.792;10.616;2023-06-22T03:37:29;13.55;;;8.52;;
19560;SDS011;9927;47.792;10.616;2023-06-22T03:39:56;11.48;;;8.10;;
19560;SDS011;9927;47.792;10.616;2023-06-22T03:42:23;13.00;;;8.13;;
19560;SDS011;9927;47.792;10.616;2023-06-22T03:44:50;9.93;;;7.70;;
19560;SDS011;9927;47.792;10.616;2023-06-22T03:47:18;17.52;;;9.68;;
19560;SDS011;9927;47.792;10.616;2023-06-22T03:49:45;14.07;;;8.77;;
19560;SDS011;9927;47.792;10.616;2023-06-22T03:52:12;13.98;;;8.32;;
19560;SDS011;9927;47.792;10.616;2023-06-22T03:54:39;11.85;;;7.88;;
19560;SDS011;9927;47.792;10.616;2023-06-22T03:57:06;12.02;;;8.10;;
19560;SDS011;9927;47.792;10.616;2023-06-22T03:59:34;11.35;;;7.97;;
19560;SDS011;9927;47.792;10.616;2023-06-22T04:02:01;10.70;;;8.25;;
19560;SDS011;9927;47.792;10.616;2023-06-22T04:04:29;9.25;;;7.72;;
19560;SDS011;9927;47.792;10.616;2023-06-22T04:06:56;14.05;;;8.20;;
19560;SDS011;9927;47.792;10.616;2023-06-22T04:09:24;11.02;;;7.60;;
19560;SDS011;9927;47.792;10.616;2023-06-22T04:11:51;10.13;;;8.30;;
19560;SDS011;9927;47.792;10.616;2023-06-22T04:14:18;10.82;;;8.10;;
19560;SDS011;9927;47.792;10.616;2023-06-22T04:16:46;11.70;;;8.18;;
19560;SDS011;9927;47.792;10.616;2023-06-22T04:19:13;11.93;;;7.95;;
19560;SDS011;9927;47.792;10.616;2023-06-22T04:21:43;13.25;;;8.98;;
19560;SDS011;9927;47.792;10.616;2023-06-22T04:24:11;18.27;;;8.95;;
19560;SDS011;9927;47.792;10.616;2023-06-22T04:26:38;9.95;;;7.80;;
19560;SDS011;9927;47.792;10.616;2023-06-22T04:29:08;12.77;;;8.15;;
19560;SDS011;9927;47.792;10.616;2023-06-22T04:31:35;12.13;;;8.02;;
19560;SDS011;9927;47.792;10.616;2023-06-22T04:34:06;12.38;;;7.85;;
19560;SDS011;9927;47.792;10.616;2023-06-22T04:39:08;12.23;;;8.32;;
19560;SDS011;9927;47.792;10.616;2023-06-22T04:41:38;11.18;;;8.60;;
19560;SDS011;9927;47.792;10.616;2023-06-22T04:46:40;14.13;;;9.15;;
19560;SDS011;9927;47.792;10.616;2023-06-22T04:49:08;12.52;;;8.13;;
19560;SDS011;9927;47.792;10.616;2023-06-22T04:51:39;8.68;;;6.90;;
19560;SDS011;9927;47.792;10.616;2023-06-22T04:54:08;12.70;;;7.97;;
19560;SDS011;9927;47.792;10.616;2023-06-22T04:56:36;16.25;;;8.65;;
19560;SDS011;9927;47.792;10.616;2023-06-22T04:59:03;10.32;;;7.88;;
19560;SDS011;9927;47.792;10.616;2023-06-22T05:01:30;12.20;;;8.10;;
19560;SDS011;9927;47.792;10.616;2023-06-22T05:03:58;15.18;;;9.00;;
19560;SDS011;9927;47.792;10.616;2023-06-22T05:06:29;16.23;;;9.30;;
19560;SDS011;9927;47.792;10.616;2023-06-22T05:08:56;16.08;;;9.93;;
19560;SDS011;9927;47.792;10.616;2023-06-22T05:11:25;18.13;;;9.60;;
19560;SDS011;9927;47.792;10.616;2023-06-22T05:13:56;14.23;;;9.30;;
19560;SDS011;9927;47.792;10.616;2023-06-22T05:16:23;15.02;;;9.30;;
19560;SDS011;9927;47.792;10.616;2023-06-22T05:18:54;14.70;;;9.60;;
19560;SDS011;9927;47.792;10.616;2023-06-22T05:21:23;16.45;;;10.85;;
19560;SDS011;9927;47.792;10.616;2023-06-22T05:23:51;13.88;;;10.27;;
19560;SDS011;9927;47.792;10.616;2023-06-22T05:26:22;17.40;;;10.95;;
19560;SDS011;9927;47.792;10.616;2023-06-22T05:28:50;13.77;;;11.15;;
19560;SDS011;9927;47.792;10.616;2023-06-22T05:31:18;15.50;;;10.73;;
19560;SDS011;9927;47.792;10.616;2023-06-22T05:33:51;17.83;;;10.57;;
19560;SDS011;9927;47.792;10.616;2023-06-22T05:36:19;12.77;;;10.38;;
19560;SDS011;9927;47.792;10.616;2023-06-22T05:38:47;12.27;;;9.52;;
19560;SDS011;9927;47.792;10.616;2023-06-22T05:41:15;11.80;;;9.95;;
19560;SDS011;9927;47.792;10.616;2023-06-22T05:43:42;21.85;;;13.52;;
19560;SDS011;9927;47.792;10.616;2023-06-22T05:46:09;16.48;;;12.85;;
19560;SDS011;9927;47.792;10.616;2023-06-22T05:48:36;15.10;;;11.38;;
19560;SDS011;9927;47.792;10.616;2023-06-22T05:51:04;12.23;;;9.40;;
19560;SDS011;9927;47.792;10.616;2023-06-22T05:53:31;11.52;;;8.95;;
19560;SDS011;9927;47.792;10.616;2023-06-22T05:55:58;17.42;;;11.13;;
19560;SDS011;9927;47.792;10.616;2023-06-22T05:58:25;12.45;;;9.38;;
19560;SDS011;9927;47.792;10.616;2023-06-22T06:00:53;11.90;;;8.73;;
19560;SDS011;9927;47.792;10.616;2023-06-22T06:03:20;15.93;;;9.20;;
19560;SDS011;9927;47.792;10.616;2023-06-22T06:05:47;11.32;;;8.00;;
19560;SDS011;9927;47.792;10.616;2023-06-22T06:08:14;10.77;;;8.07;;
19560;SDS011;9927;47.792;10.616;2023-06-22T06:10:42;16.75;;;9.95;;
19560;SDS011;9927;47.792;10.616;2023-06-22T06:13:09;13.70;;;9.63;;
19560;SDS011;9927;47.792;10.616;2023-06-22T06:15:36;8.45;;;7.63;;
19560;SDS011;9927;47.792;10.616;2023-06-22T06:18:03;11.65;;;8.95;;
19560;SDS011;9927;47.792;10.616;2023-06-22T06:20:32;13.23;;;8.38;;
19560;SDS011;9927;47.792;10.616;2023-06-22T06:23:00;14.45;;;9.73;;
19560;SDS011;9927;47.792;10.616;2023-06-22T06:25:27;13.20;;;7.80;;
19560;SDS011;9927;47.792;10.616;2023-06-22T06:27:54;14.82;;;8.43;;
19560;SDS011;9927;47.792;10.616;2023-06-22T06:30:22;11.32;;;9.43;;
19560;SDS011;9927;47.792;10.616;2023-06-22T06:32:49;17.02;;;8.88;;
19560;SDS011;9927;47.792;10.616;2023-06-22T06:35:17;13.90;;;8.30;;
19560;SDS011;9927;47.792;10.616;2023-06-22T06:37:45;15.10;;;8.35;;
19560;SDS011;9927;47.792;10.616;2023-06-22T06:40:14;13.82;;;8.35;;
19560;SDS011;9927;47.792;10.616;2023-06-22T06:42:43;8.57;;;7.38;;
19560;SDS011;9927;47.792;10.616;2023-06-22T06:47:43;12.88;;;8.07;;
19560;SDS011;9927;47.792;10.616;2023-06-22T06:50:11;11.45;;;7.53;;
19560;SDS011;9927;47.792;10.616;2023-06-22T06:52:38;11.40;;;7.90;;
19560;SDS011;9927;47.792;10.616;2023-06-22T06:55:06;10.65;;;7.55;;
19560;SDS011;9927;47.792;10.616;2023-06-22T06:57:40;13.40;;;8.88;;
19560;SDS011;9927;47.792;10.616;2023-06-22T07:00:10;11.30;;;7.25;;
19560;SDS011;9927;47.792;10.616;2023-06-22T07:02:40;12.75;;;7.82;;
19560;SDS011;9927;47.792;10.616;2023-06-22T07:05:09;11.05;;;7.35;;
19560;SDS011;9927;47.792;10.616;2023-06-22T07:07:38;12.85;;;8.63;;
19560;SDS011;9927;47.792;10.616;2023-06-22T07:10:05;13.18;;;7.38;;
19560;SDS011;9927;47.792;10.616;2023-06-22T07:12:33;17.27;;;9.13;;
19560;SDS011;9927;47.792;10.616;2023-06-22T07:15:07;12.93;;;8.20;;
19560;SDS011;9927;47.792;10.616;2023-06-22T07:17:36;15.00;;;8.45;;
19560;SDS011;9927;47.792;10.616;2023-06-22T07:20:04;14.70;;;8.07;;
19560;SDS011;9927;47.792;10.616;2023-06-22T07:22:39;9.85;;;7.40;;
19560;SDS011;9927;47.792;10.616;2023-06-22T07:25:11;12.45;;;7.82;;
19560;SDS011;9927;47.792;10.616;2023-06-22T07:27:58;12.65;;;7.85;;
19560;SDS011;9927;47.792;10.616;2023-06-22T07:30:30;14.20;;;8.55;;
19560;SDS011;9927;47.792;10.616;2023-06-22T07:32:59;11.23;;;7.75;;
19560;SDS011;9927;47.792;10.616;2023-06-22T07:35:31;14.82;;;8.40;;
19560;SDS011;9927;47.792;10.616;2023-06-22T07:37:58;13.77;;;8.45;;
19560;SDS011;9927;47.792;10.616;2023-06-22T07:40:30;13.73;;;7.40;;
19560;SDS011;9927;47.792;10.616;2023-06-22T07:42:58;13.05;;;7.95;;
19560;SDS011;9927;47.792;10.616;2023-06-22T07:45:25;11.73;;;8.20;;
19560;SDS011;9927;47.792;10.616;2023-06-22T07:47:53;10.55;;;6.55;;
19560;SDS011;9927;47.792;10.616;2023-06-22T07:50:20;15.55;;;8.73;;
19560;SDS011;9927;47.792;10.616;2023-06-22T07:52:47;11.20;;;7.80;;
19560;SDS011;9927;47.792;10.616;2023-06-22T07:55:15;11.18;;;7.50;;
19560;SDS011;9927;47.792;10.616;2023-06-22T07:57:42;9.93;;;6.78;;
19560;SDS011;9927;47.792;10.616;2023-06-22T08:00:09;10.93;;;6.85;;
19560;SDS011;9927;47.792;10.616;2023-06-22T08:02:41;13.45;;;7.38;;
19560;SDS011;9927;47.792;10.616;2023-06-22T08:05:13;13.70;;;8.18;;
19560;SDS011;9927;47.792;10.616;2023-06-22T08:07:48;8.70;;;6.15;;
19560;SDS011;9927;47.792;10.616;2023-06-22T08:10:16;14.75;;;7.20;;
19560;SDS011;9927;47.792;10.616;2023-06-22T08:12:44;12.18;;;6.75;;
19560;SDS011;9927;47.792;10.616;2023-06-22T08:15:11;14.43;;;7.93;;
19560;SDS011;9927;47.792;10.616;2023-06-22T08:17:39;12.63;;;6.85;;
19560;SDS011;9927;47.792;10.616;2023-06-22T08:20:07;8.93;;;7.25;;
19560;SDS011;9927;47.792;10.616;2023-06-22T08:22:39;12.65;;;7.68;;
19560;SDS011;9927;47.792;10.616;2023-06-22T08:25:07;14.95;;;7.28;;
19560;SDS011;9927;47.792;10.616;2023-06-22T08:27:35;10.25;;;6.22;;
19560;SDS011;9927;47.792;10.616;2023-06-22T08:30:03;10.50;;;6.80;;
19560;SDS011;9927;47.792;10.616;2023-06-22T08:32:30;12.65;;;7.65;;
19560;SDS011;9927;47.792;10.616;2023-06-22T08:34:59;10.38;;;7.30;;
19560;SDS011;9927;47.792;10.616;2023-06-22T08:37:27;12.80;;;6.88;;
19560;SDS011;9927;47.792;10.616;2023-06-22T08:40:02;12.27;;;7.00;;
19560;SDS011;9927;47.792;10.616;2023-06-22T08:42:32;11.50;;;6.85;;
19560;SDS011;9927;47.792;10.616;2023-06-22T08:44:59;14.23;;;7.65;;
19560;SDS011;9927;47.792;10.616;2023-06-22T08:47:27;15.70;;;8.45;;
19560;SDS011;9927;47.792;10.616;2023-06-22T08:49:55;12.48;;;8.70;;
19560;SDS011;9927;47.792;10.616;2023-06-22T08:52:23;13.07;;;7.53;;
19560;SDS011;9927;47.792;10.616;2023-06-22T08:54:50;14.13;;;7.63;;
19560;SDS011;9927;47.792;10.616;2023-06-22T08:57:18;11.98;;;7.90;;
19560;SDS011;9927;47.792;10.616;2023-06-22T08:59:45;15.73;;;7.95;;
19560;SDS011;9927;47.792;10.616;2023-06-22T09:02:12;15.63;;;7.47;;
19560;SDS011;9927;47.792;10.616;2023-06-22T09:04:40;11.85;;;7.15;;
19560;SDS011;9927;47.792;10.616;2023-06-22T09:07:08;9.27;;;6.78;;
19560;SDS011;9927;47.792;10.616;2023-06-22T09:09:35;12.75;;;8.00;;
19560;SDS011;9927;47.792;10.616;2023-06-22T09:12:03;14.90;;;9.13;;
19560;SDS011;9927;47.792;10.616;2023-06-22T09:14:30;14.88;;;7.95;;
19560;SDS011;9927;47.792;10.616;2023-06-22T09:16:58;14.90;;;7.75;;
19560;SDS011;9927;47.792;10.616;2023-06-22T09:19:25;10.43;;;7.38;;
19560;SDS011;9927;47.792;10.616;2023-06-22T09:21:52;14.43;;;8.45;;
19560;SDS011;9927;47.792;10.616;2023-06-22T09:24:20;12.32;;;7.70;;
19560;SDS011;9927;47.792;10.616;2023-06-22T09:26:47;15.93;;;8.20;;
19560;SDS011;9927;47.792;10.616;2023-06-22T09:29:14;11.13;;;7.65;;
19560;SDS011;9927;47.792;10.616;2023-06-22T09:31:41;14.05;;;7.60;;
19560;SDS011;9927;47.792;10.616;2023-06-22T09:34:09;12.73;;;7.88;;
19560;SDS011;9927;47.792;10.616;2023-06-22T09:36:36;12.90;;;8.43;;
19560;SDS011;9927;47.792;10.616;2023-06-22T09:39:06;14.15;;;7.90;;
19560;SDS011;9927;47.792;10.616;2023-06-22T09:41:33;10.98;;;7.80;;
19560;SDS011;9927;47.792;10.616;2023-06-22T09:44:00;13.68;;;7.93;;
19560;SDS011;9927;47.792;10.616;2023-06-22T09:46:28;11.90;;;7.13;;
19560;SDS011;9927;47.792;10.616;2023-06-22T09:48:55;16.83;;;7.82;;
19560;SDS011;9927;47.792;10.616;2023-06-22T09:51:23;12.05;;;7.53;;
19560;SDS011;9927;47.792;10.616;2023-06-22T09:53:50;10.90;;;7.00;;
19560;SDS011;9927;47.792;10.616;2023-06-22T09:56:20;21.40;;;8.18;;
19560;SDS011;9927;47.792;10.616;2023-06-22T09:58:47;11.73;;;7.85;;
19560;SDS011;9927;47.792;10.616;2023-06-22T10:01:18;18.05;;;8.23;;
19560;SDS011;9927;47.792;10.616;2023-06-22T10:03:47;15.02;;;8.00;;
19560;SDS011;9927;47.792;10.616;2023-06-22T10:06:15;12.13;;;8.45;;
19560;SDS011;9927;47.792;10.616;2023-06-22T10:08:42;21.08;;;7.70;;
19560;SDS011;9927;47.792;10.616;2023-06-22T10:11:09;12.40;;;6.97;;
19560;SDS011;9927;47.792;10.616;2023-06-22T10:13:37;15.10;;;7.75;;
19560;SDS011;9927;47.792;10.616;2023-06-22T10:16:04;12.32;;;6.70;;
19560;SDS011;9927;47.792;10.616;2023-06-22T10:18:31;14.82;;;7.25;;
19560;SDS011;9927;47.792;10.616;2023-06-22T10:20:59;14.55;;;8.40;;
19560;SDS011;9927;47.792;10.616;2023-06-22T10:23:27;11.68;;;7.20;;
19560;SDS011;9927;47.792;10.616;2023-06-22T10:25:54;11.88;;;6.57;;
19560;SDS011;9927;47.792;10.616;2023-06-22T10:28:23;12.52;;;6.93;;
19560;SDS011;9927;47.792;10.616;2023-06-22T10:30:51;9.73;;;6.40;;
19560;SDS011;9927;47.792;10.616;2023-06-22T10:33:18;14.15;;;7.22;;
19560;SDS011;9927;47.792;10.616;2023-06-22T10:35:45;11.82;;;6.88;;
19560;SDS011;9927;47.792;10.616;2023-06-22T10:38:12;13.07;;;7.75;;
19560;SDS011;9927;47.792;10.616;2023-06-22T10:40:40;15.43;;;8.30;;
19560;SDS011;9927;47.792;10.616;2023-06-22T10:43:07;15.40;;;7.80;;
19560;SDS011;9927;47.792;10.616;2023-06-22T10:45:34;12.65;;;6.85;;
19560;SDS011;9927;47.792;10.616;2023-06-22T10:48:01;16.00;;;6.47;;
19560;SDS011;9927;47.792;10.616;2023-06-22T10:50:29;15.18;;;7.72;;
19560;SDS011;9927;47.792;10.616;2023-06-22T10:52:56;18.70;;;7.07;;
19560;SDS011;9927;47.792;10.616;2023-06-22T10:55:26;14.23;;;7.47;;
19560;SDS011;9927;47.792;10.616;2023-06-22T10:58:06;19.65;;;8.40;;
19560;SDS011;9927;47.792;10.616;2023-06-22T11:00:34;15.95;;;8.73;;
19560;SDS011;9927;47.792;10.616;2023-06-22T11:03:01;12.73;;;6.78;;
19560;SDS011;9927;47.792;10.616;2023-06-22T11:05:29;16.52;;;6.80;;
19560;SDS011;9927;47.792;10.616;2023-06-22T11:07:57;18.88;;;8.00;;
19560;SDS011;9927;47.792;10.616;2023-06-22T11:10:24;17.23;;;7.63;;
19560;SDS011;9927;47.792;10.616;2023-06-22T11:12:52;18.30;;;7.07;;
19560;SDS011;9927;47.792;10.616;2023-06-22T11:15:20;15.43;;;7.00;;
19560;SDS011;9927;47.792;10.616;2023-06-22T11:17:47;12.38;;;6.85;;
19560;SDS011;9927;47.792;10.616;2023-06-22T11:20:14;11.68;;;6.35;;
19560;SDS011;9927;47.792;10.616;2023-06-22T11:22:42;14.35;;;7.22;;
19560;SDS011;9927;47.792;10.616;2023-06-22T11:25:09;17.02;;;7.70;;
19560;SDS011;9927;47.792;10.616;2023-06-22T11:27:38;16.38;;;7.80;;
19560;SDS011;9927;47.792;10.616;2023-06-22T11:30:06;13.10;;;7.13;;
19560;SDS011;9927;47.792;10.616;2023-06-22T11:32:34;13.63;;;6.93;;
19560;SDS011;9927;47.792;10.616;2023-06-22T11:35:02;10.73;;;6.22;;
19560;SDS011;9927;47.792;10.616;2023-06-22T11:37:29;10.35;;;6.35;;
19560;SDS011;9927;47.792;10.616;2023-06-22T11:39:57;13.10;;;7.03;;
19560;SDS011;9927;47.792;10.616;2023-06-22T11:42:33;15.15;;;6.40;;
19560;SDS011;9927;47.792;10.616;2023-06-22T11:45:01;9.85;;;5.60;;
19560;SDS011;9927;47.792;10.616;2023-06-22T11:47:29;12.02;;;6.20;;
19560;SDS011;9927;47.792;10.616;2023-06-22T11:49:56;20.30;;;7.07;;
19560;SDS011;9927;47.792;10.616;2023-06-22T11:52:23;11.68;;;6.60;;
19560;SDS011;9927;47.792;10.616;2023-06-22T11:54:51;11.43;;;6.28;;
19560;SDS011;9927;47.792;10.616;2023-06-22T11:57:18;15.85;;;6.25;;
19560;SDS011;9927;47.792;10.616;2023-06-22T11:59:45;15.32;;;6.25;;
19560;SDS011;9927;47.792;10.616;2023-06-22T12:02:12;14.65;;;6.20;;
19560;SDS011;9927;47.792;10.616;2023-06-22T12:04:39;15.48;;;5.72;;
19560;SDS011;9927;47.792;10.616;2023-06-22T12:07:07;10.45;;;5.00;;
19560;SDS011;9927;47.792;10.616;2023-06-22T12:09:34;18.05;;;5.75;;
19560;SDS011;9927;47.792;10.616;2023-06-22T12:12:01;15.88;;;5.90;;
19560;SDS011;9927;47.792;10.616;2023-06-22T12:14:29;10.30;;;5.32;;
19560;SDS011;9927;47.792;10.616;2023-06-22T12:16:58;14.40;;;5.70;;
19560;SDS011;9927;47.792;10.616;2023-06-22T12:19:25;16.80;;;6.40;;
19560;SDS011;9927;47.792;10.616;2023-06-22T12:21:52;9.77;;;5.13;;
19560;SDS011;9927;47.792;10.616;2023-06-22T12:24:20;16.15;;;6.20;;
19560;SDS011;9927;47.792;10.616;2023-06-22T12:26:47;12.13;;;5.82;;
19560;SDS011;9927;47.792;10.616;2023-06-22T12:29:14;15.63;;;6.05;;
19560;SDS011;9927;47.792;10.616;2023-06-22T12:31:41;13.90;;;5.60;;
19560;SDS011;9927;47.792;10.616;2023-06-22T12:34:09;11.73;;;5.88;;
19560;SDS011;9927;47.792;10.616;2023-06-22T12:36:36;15.02;;;5.93;;
19560;SDS011;9927;47.792;10.616;2023-06-22T12:39:03;16.35;;;6.15;;
19560;SDS011;9927;47.792;10.616;2023-06-22T12:41:31;11.15;;;5.50;;
19560;SDS011;9927;47.792;10.616;2023-06-22T12:43:58;13.55;;;5.22;;
19560;SDS011;9927;47.792;10.616;2023-06-22T12:46:26;13.18;;;5.72;;
19560;SDS011;9927;47.792;10.616;2023-06-22T12:48:53;14.38;;;5.90;;
19560;SDS011;9927;47.792;10.616;2023-06-22T12:51:21;15.55;;;5.40;;
19560;SDS011;9927;47.792;10.616;2023-06-22T12:53:49;14.90;;;5.82;;
19560;SDS011;9927;47.792;10.616;2023-06-22T12:56:16;13.10;;;5.72;;
19560;SDS011;9927;47.792;10.616;2023-06-22T12:58:44;14.00;;;5.40;;
19560;SDS011;9927;47.792;10.616;2023-06-22T13:01:11;16.90;;;6.22;;
19560;SDS011;9927;47.792;10.616;2023-06-22T13:03:41;15.35;;;5.78;;
19560;SDS011;9927;47.792;10.616;2023-06-22T13:06:08;14.55;;;6.15;;
19560;SDS011;9927;47.792;10.616;2023-06-22T13:08:36;11.60;;;5.35;;
19560;SDS011;9927;47.792;10.616;2023-06-22T13:11:23;14.48;;;6.00;;
19560;SDS011;9927;47.792;10.616;2023-06-22T13:13:50;20.77;;;6.43;;
19560;SDS011;9927;47.792;10.616;2023-06-22T13:16:17;14.07;;;5.50;;
19560;SDS011;9927;47.792;10.616;2023-06-22T13:18:44;12.52;;;5.53;;
19560;SDS011;9927;47.792;10.616;2023-06-22T13:21:12;14.27;;;4.72;;
19560;SDS011;9927;47.792;10.616;2023-06-22T13:23:40;14.20;;;5.15;;
19560;SDS011;9927;47.792;10.616;2023-06-22T13:26:07;15.73;;;5.22;;
19560;SDS011;9927;47.792;10.616;2023-06-22T13:28:34;11.30;;;4.97;;
19560;SDS011;9927;47.792;10.616;2023-06-22T13:31:02;11.52;;;5.05;;
19560;SDS011;9927;47.792;10.616;2023-06-22T13:33:29;14.55;;;5.40;;
19560;SDS011;9927;47.792;10.616;2023-06-22T13:35:57;16.60;;;4.65;;
19560;SDS011;9927;47.792;10.616;2023-06-22T13:38:24;9.50;;;4.47;;
19560;SDS011;9927;47.792;10.616;2023-06-22T13:40:51;10.63;;;4.25;;
19560;SDS011;9927;47.792;10.616;2023-06-22T13:43:18;11.77;;;4.55;;
19560;SDS011;9927;47.792;10.616;2023-06-22T13:45:46;10.95;;;5.03;;
19560;SDS011;9927;47.792;10.616;2023-06-22T13:48:13;11.43;;;4.97;;
19560;SDS011;9927;47.792;10.616;2023-06-22T13:50:40;9.80;;;4.95;;
19560;SDS011;9927;47.792;10.616;2023-06-22T13:53:08;13.30;;;4.95;;
19560;SDS011;9927;47.792;10.616;2023-06-22T13:55:35;10.50;;;4.90;;
19560;SDS011;9927;47.792;10.616;2023-06-22T13:58:02;16.98;;;5.50;;
19560;SDS011;9927;47.792;10.616;2023-06-22T14:00:29;14.63;;;5.60;;
19560;SDS011;9927;47.792;10.616;2023-06-22T14:02:57;13.30;;;5.13;;
19560;SDS011;9927;47.792;10.616;2023-06-22T14:05:25;15.07;;;5.43;;
19560;SDS011;9927;47.792;10.616;2023-06-22T14:07:52;9.75;;;4.78;;
19560;SDS011;9927;47.792;10.616;2023-06-22T14:10:19;14.00;;;4.97;;
19560;SDS011;9927;47.792;10.616;2023-06-22T14:12:46;13.77;;;4.85;;
19560;SDS011;9927;47.792;10.616;2023-06-22T14:15:14;17.58;;;5.97;;
19560;SDS011;9927;47.792;10.616;2023-06-22T14:17:41;13.82;;;4.85;;
19560;SDS011;9927;47.792;10.616;2023-06-22T14:20:09;16.30;;;6.18;;
19560;SDS011;9927;47.792;10.616;2023-06-22T14:22:36;15.38;;;5.65;;
19560;SDS011;9927;47.792;10.616;2023-06-22T14:25:04;13.23;;;4.82;;
19560;SDS011;9927;47.792;10.616;2023-06-22T14:27:32;13.50;;;4.88;;
19560;SDS011;9927;47.792;10.616;2023-06-22T14:29:59;16.27;;;5.57;;
19560;SDS011;9927;47.792;10.616;2023-06-22T14:32:27;13.85;;;5.30;;
19560;SDS011;9927;47.792;10.616;2023-06-22T14:34:56;14.15;;;5.80;;
19560;SDS011;9927;47.792;10.616;2023-06-22T14:37:24;18.65;;;5.90;;
19560;SDS011;9927;47.792;10.616;2023-06-22T14:39:51;9.32;;;4.88;;
19560;SDS011;9927;47.792;10.616;2023-06-22T14:42:18;13.80;;;5.15;;
19560;SDS011;9927;47.792;10.616;2023-06-22T14:44:45;12.73;;;5.47;;
19560;SDS011;9927;47.792;10.616;2023-06-22T14:47:12;17.65;;;5.95;;
19560;SDS011;9927;47.792;10.616;2023-06-22T14:49:40;12.55;;;5.50;;
19560;SDS011;9927;47.792;10.616;2023-06-22T14:52:07;11.98;;;5.43;;
19560;SDS011;9927;47.792;10.616;2023-06-22T14:54:35;10.43;;;4.82;;
19560;SDS011;9927;47.792;10.616;2023-06-22T14:57:02;15.38;;;5.35;;